Time;durP1;ratioP1;P1;durP2;ratioP2;P2;SDS_P1;SDS_P2;PMS_P1;PMS_P2;Temp;Humidity;BMP_temperature;BMP_pressure;BME280_temperature;BME280_humidity;BME280_pressure;Samples;Min_cycle;Max_cycle;Signal;HPM_P1;HPM_P2
2023/01/02 00:00:30;;;;;;;;;;;21.10;39.50;;;;;;462493;257;1777;-43
2023/01/02 00:02:31;;;;;;;;;;;21.10;39.60;;;;;;462385;257;1763;-43
2023/01/02 00:04:32;;;;;;;;;;;21.10;39.60;;;;;;462493;257;2203;-43
2023/01/02 00:06:34;;;;;;;;;;;21.10;39.60;;;;;;462405;257;1747;-44
2023/01/02 00:08:35;;;;;;;;;;;21.10;39.60;;;;;;462620;257;2239;-43
2023/01/02 00:10:36;;;;;;;;;;;21.10;39.60;;;;;;462505;257;1880;-43
2023/01/02 00:12:38;;;;;;;;;;;21.10;39.60;;;;;;462408;257;1997;-43
2023/01/02 00:14:39;;;;;;;;;;;21.00;39.60;;;;;;462526;257;1766;-43
2023/01/02 00:16:40;;;;;;;;;;;21.00;39.60;;;;;;462368;257;1891;-44
2023/01/02 00:18:42;;;;;;;;;;;21.20;39.50;;;;;;462501;257;1661;-43
2023/01/02 00:20:43;;;;;;;;;;;21.40;39.10;;;;;;462493;257;2023;-44
2023/01/02 00:22:44;;;;;;;;;;;21.60;38.80;;;;;;462497;257;1758;-44
2023/01/02 00:24:46;;;;;;;;;;;21.70;38.40;;;;;;462485;257;1972;-44
2023/01/02 00:26:47;;;;;;;;;;;21.90;38.10;;;;;;462525;257;2338;-43
2023/01/02 00:28:48;;;;;;;;;;;22.00;37.80;;;;;;462721;257;2207;-43
2023/01/02 00:30:50;;;;;;;;;;;22.10;37.70;;;;;;462739;257;1774;-44
2023/01/02 00:32:51;;;;;;;;;;;22.20;37.50;;;;;;462629;257;1750;-43
2023/01/02 00:34:52;;;;;;;;;;;22.30;37.40;;;;;;462769;257;1689;-44
2023/01/02 00:36:54;;;;;;;;;;;22.40;37.30;;;;;;462631;257;1781;-44
2023/01/02 00:38:55;;;;;;;;;;;22.40;37.10;;;;;;462719;257;1681;-44
2023/01/02 00:40:57;;;;;;;;;;;22.50;37.00;;;;;;462614;257;2273;-43
2023/01/02 00:42:58;;;;;;;;;;;22.50;36.90;;;;;;462611;257;2272;-44
2023/01/02 00:44:59;;;;;;;;;;;22.60;36.80;;;;;;462687;257;1935;-44
2023/01/02 00:47:01;;;;;;;;;;;22.60;36.80;;;;;;462477;257;1688;-44
2023/01/02 00:49:02;;;;;;;;;;;22.70;36.70;;;;;;462669;257;2172;-43
2023/01/02 00:51:03;;;;;;;;;;;22.70;36.70;;;;;;462516;257;1857;-43
2023/01/02 00:53:04;;;;;;;;;;;22.70;36.60;;;;;;462569;257;1692;-43
2023/01/02 00:55:06;;;;;;;;;;;22.80;36.50;;;;;;462543;257;2566;-44
2023/01/02 00:57:07;;;;;;;;;;;22.80;36.50;;;;;;462389;257;1851;-44
2023/01/02 00:59:08;;;;;;;;;;;22.90;36.50;;;;;;462484;257;1860;-43
2023/01/02 01:01:10;;;;;;;;;;;22.90;36.40;;;;;;462484;257;1954;-43
2023/01/02 01:03:11;;;;;;;;;;;22.90;36.30;;;;;;462664;257;1679;-44
2023/01/02 01:05:12;;;;;;;;;;;23.00;36.30;;;;;;462659;257;1720;-43
2023/01/02 01:07:14;;;;;;;;;;;23.00;36.20;;;;;;462436;257;1754;-44
2023/01/02 01:09:15;;;;;;;;;;;23.00;36.10;;;;;;462730;257;2163;-44
2023/01/02 01:11:16;;;;;;;;;;;23.10;36.10;;;;;;462566;257;2165;-43
2023/01/02 01:13:18;;;;;;;;;;;23.10;36.10;;;;;;462655;257;2074;-44
2023/01/02 01:15:19;;;;;;;;;;;23.10;36.00;;;;;;462647;257;1688;-43
2023/01/02 01:17:20;;;;;;;;;;;23.10;36.00;;;;;;462591;257;1689;-44
2023/01/02 01:19:22;;;;;;;;;;;23.10;36.00;;;;;;462555;257;2014;-44
2023/01/02 01:21:23;;;;;;;;;;;23.10;35.90;;;;;;462401;257;1810;-44
2023/01/02 01:23:24;;;;;;;;;;;23.20;36.00;;;;;;462601;257;1716;-44
2023/01/02 01:25:26;;;;;;;;;;;23.10;35.90;;;;;;462734;257;1710;-44
2023/01/02 01:27:27;;;;;;;;;;;23.20;35.90;;;;;;462436;257;1839;-44
2023/01/02 01:29:28;;;;;;;;;;;23.20;35.90;;;;;;462516;257;3052;-44
2023/01/02 01:31:30;;;;;;;;;;;23.20;35.90;;;;;;462466;257;1908;-44
2023/01/02 01:33:31;;;;;;;;;;;23.20;35.80;;;;;;462684;257;1788;-44
2023/01/02 01:35:32;;;;;;;;;;;23.30;35.90;;;;;;462618;257;2076;-44
2023/01/02 01:37:34;;;;;;;;;;;23.30;35.80;;;;;;462539;257;2095;-44
2023/01/02 01:39:35;;;;;;;;;;;23.30;35.70;;;;;;462668;257;1987;-43
2023/01/02 01:41:36;;;;;;;;;;;23.30;35.70;;;;;;462559;257;1569;-44
2023/01/02 01:43:38;;;;;;;;;;;23.30;35.70;;;;;;462801;257;1950;-44
2023/01/02 01:45:39;;;;;;;;;;;23.30;35.70;;;;;;462642;257;2655;-44
2023/01/02 01:47:40;;;;;;;;;;;23.30;35.70;;;;;;462617;257;2000;-44
2023/01/02 01:49:41;;;;;;;;;;;23.30;35.70;;;;;;462818;257;2339;-43
2023/01/02 01:51:43;;;;;;;;;;;23.30;35.70;;;;;;462729;257;1731;-44
2023/01/02 01:53:44;;;;;;;;;;;23.40;35.70;;;;;;462731;257;1962;-44
2023/01/02 01:55:45;;;;;;;;;;;23.40;35.70;;;;;;462783;257;1822;-43
2023/01/02 01:57:47;;;;;;;;;;;23.40;35.70;;;;;;462709;257;1754;-43
2023/01/02 01:59:48;;;;;;;;;;;23.40;35.60;;;;;;462807;257;1836;-44
2023/01/02 02:01:49;;;;;;;;;;;23.40;35.60;;;;;;462789;257;1813;-44
2023/01/02 02:03:51;;;;;;;;;;;23.40;35.60;;;;;;462715;257;1722;-44
2023/01/02 02:05:52;;;;;;;;;;;23.40;35.70;;;;;;462795;257;2306;-44
2023/01/02 02:07:53;;;;;;;;;;;23.40;35.70;;;;;;462672;257;1905;-44
2023/01/02 02:09:55;;;;;;;;;;;23.20;35.90;;;;;;462797;257;2167;-43
2023/01/02 02:11:57;;;;;;;;;;;23.00;36.30;;;;;;462739;257;1636;-44
2023/01/02 02:13:58;;;;;;;;;;;22.70;36.70;;;;;;462777;257;1898;-44
2023/01/02 02:15:59;;;;;;;;;;;22.60;37.00;;;;;;462584;257;1883;-43
2023/01/02 02:18:01;;;;;;;;;;;22.40;37.40;;;;;;462787;257;2174;-44
2023/01/02 02:20:02;;;;;;;;;;;22.30;37.50;;;;;;462716;257;2085;-43
2023/01/02 02:22:03;;;;;;;;;;;22.20;37.70;;;;;;462620;257;1914;-43
2023/01/02 02:24:04;;;;;;;;;;;22.10;37.90;;;;;;462786;257;2039;-44
2023/01/02 02:26:06;;;;;;;;;;;22.00;38.10;;;;;;462624;257;1663;-43
2023/01/02 02:28:07;;;;;;;;;;;22.00;38.20;;;;;;462724;257;1879;-43
2023/01/02 02:30:08;;;;;;;;;;;21.90;38.20;;;;;;462694;257;2155;-43
2023/01/02 02:32:10;;;;;;;;;;;21.90;38.30;;;;;;462561;257;1730;-43
2023/01/02 02:34:11;;;;;;;;;;;21.80;38.40;;;;;;462715;257;1753;-44
2023/01/02 02:36:12;;;;;;;;;;;21.80;38.50;;;;;;462640;257;1687;-44
2023/01/02 02:38:14;;;;;;;;;;;21.80;38.50;;;;;;462822;257;1732;-43
2023/01/02 02:40:15;;;;;;;;;;;21.80;38.60;;;;;;462762;257;1712;-44
2023/01/02 02:42:16;;;;;;;;;;;21.70;38.60;;;;;;462699;257;1667;-43
2023/01/02 02:44:18;;;;;;;;;;;21.70;38.70;;;;;;462707;257;1751;-43
2023/01/02 02:46:19;;;;;;;;;;;21.60;38.70;;;;;;462732;257;1734;-44
2023/01/02 02:48:20;;;;;;;;;;;21.60;38.70;;;;;;462818;257;1847;-43
2023/01/02 02:50:22;;;;;;;;;;;21.60;38.90;;;;;;462891;257;2163;-43
2023/01/02 02:52:23;;;;;;;;;;;21.50;39.00;;;;;;462948;257;1800;-43
2023/01/02 02:54:24;;;;;;;;;;;21.50;39.00;;;;;;462849;257;1746;-43
2023/01/02 02:56:26;;;;;;;;;;;21.50;38.90;;;;;;462893;257;2150;-44
2023/01/02 02:58:27;;;;;;;;;;;21.50;38.90;;;;;;462920;257;2251;-43
2023/01/02 03:00:28;;;;;;;;;;;21.50;39.00;;;;;;462778;257;1797;-44
2023/01/02 03:02:30;;;;;;;;;;;21.40;39.00;;;;;;462746;257;2043;-44
2023/01/02 03:04:31;;;;;;;;;;;21.40;39.10;;;;;;462810;257;1951;-44
2023/01/02 03:06:32;;;;;;;;;;;21.40;39.10;;;;;;462611;257;1731;-43
2023/01/02 03:08:33;;;;;;;;;;;21.40;39.10;;;;;;462536;257;1746;-43
2023/01/02 03:10:35;;;;;;;;;;;21.40;39.10;;;;;;462514;257;2199;-43
2023/01/02 03:12:36;;;;;;;;;;;21.40;39.10;;;;;;462594;257;2170;-43
2023/01/02 03:14:38;;;;;;;;;;;21.40;39.10;;;;;;462521;257;1766;-44
2023/01/02 03:16:39;;;;;;;;;;;21.40;39.20;;;;;;462533;257;1960;-43
2023/01/02 03:18:40;;;;;;;;;;;21.30;39.10;;;;;;462617;257;2043;-43
2023/01/02 03:20:41;;;;;;;;;;;21.30;39.10;;;;;;462578;257;1915;-43
2023/01/02 03:22:43;;;;;;;;;;;21.30;39.10;;;;;;462567;257;1859;-44
2023/01/02 03:24:44;;;;;;;;;;;21.30;39.10;;;;;;462539;257;1981;-43
2023/01/02 03:26:45;;;;;;;;;;;21.30;39.20;;;;;;462580;257;2215;-43
2023/01/02 03:28:47;;;;;;;;;;;21.30;39.10;;;;;;462723;257;1661;-43
2023/01/02 03:30:48;;;;;;;;;;;21.30;39.10;;;;;;462734;257;2309;-43
2023/01/02 03:32:49;;;;;;;;;;;21.30;39.10;;;;;;462669;257;1636;-43
2023/01/02 03:34:51;;;;;;;;;;;21.30;39.20;;;;;;462749;257;1775;-43
2023/01/02 03:36:52;;;;;;;;;;;21.30;39.20;;;;;;462718;257;1941;-43
2023/01/02 03:38:53;;;;;;;;;;;21.30;39.30;;;;;;462819;257;2124;-44
2023/01/02 03:40:55;;;;;;;;;;;21.30;39.30;;;;;;462847;257;2006;-43
2023/01/02 03:42:56;;;;;;;;;;;21.20;39.30;;;;;;462878;257;1675;-44
2023/01/02 03:44:57;;;;;;;;;;;21.20;39.20;;;;;;462938;257;2105;-44
2023/01/02 03:46:59;;;;;;;;;;;21.20;39.20;;;;;;462912;257;1732;-43
2023/01/02 03:49:00;;;;;;;;;;;21.20;39.30;;;;;;462953;257;1855;-43
2023/01/02 03:51:01;;;;;;;;;;;21.20;39.20;;;;;;462937;257;2176;-43
2023/01/02 03:53:03;;;;;;;;;;;21.20;39.20;;;;;;462949;257;1807;-43
2023/01/02 03:55:04;;;;;;;;;;;21.30;39.20;;;;;;462906;257;1730;-44
2023/01/02 03:57:05;;;;;;;;;;;21.20;39.20;;;;;;462866;257;1718;-43
2023/01/02 03:59:07;;;;;;;;;;;21.20;39.20;;;;;;462844;257;1559;-43
2023/01/02 04:01:08;;;;;;;;;;;21.30;39.20;;;;;;462668;257;1529;-44
2023/01/02 04:03:09;;;;;;;;;;;21.30;39.20;;;;;;462754;257;1850;-43
2023/01/02 04:05:11;;;;;;;;;;;21.20;39.20;;;;;;462897;257;1898;-43
2023/01/02 04:07:12;;;;;;;;;;;21.20;39.30;;;;;;462563;257;1899;-43
2023/01/02 04:09:13;;;;;;;;;;;21.20;39.30;;;;;;462625;257;1907;-43
2023/01/02 04:11:14;;;;;;;;;;;21.10;39.30;;;;;;462472;257;2206;-44
2023/01/02 04:13:16;;;;;;;;;;;21.20;39.30;;;;;;462630;257;2058;-43
2023/01/02 04:15:17;;;;;;;;;;;21.20;39.20;;;;;;462574;257;1859;-43
2023/01/02 04:17:18;;;;;;;;;;;21.20;39.20;;;;;;462536;257;1932;-43
2023/01/02 04:19:20;;;;;;;;;;;21.20;39.30;;;;;;462747;257;1712;-43
2023/01/02 04:21:21;;;;;;;;;;;21.10;39.20;;;;;;462406;257;1931;-44
2023/01/02 04:23:22;;;;;;;;;;;21.10;39.30;;;;;;462604;257;1931;-43
2023/01/02 04:25:24;;;;;;;;;;;21.10;39.30;;;;;;462588;257;2124;-44
2023/01/02 04:27:25;;;;;;;;;;;21.10;39.30;;;;;;462495;257;1842;-43
2023/01/02 04:29:26;;;;;;;;;;;21.10;39.30;;;;;;462644;257;1985;-44
2023/01/02 04:31:28;;;;;;;;;;;21.10;39.30;;;;;;462593;257;2206;-44
2023/01/02 04:33:29;;;;;;;;;;;21.00;39.40;;;;;;462654;257;1979;-43
2023/01/02 04:35:30;;;;;;;;;;;21.10;39.40;;;;;;462695;257;1990;-43
2023/01/02 04:37:32;;;;;;;;;;;21.10;39.30;;;;;;462738;257;2051;-43
2023/01/02 04:39:33;;;;;;;;;;;21.10;39.40;;;;;;462841;257;1744;-43
2023/01/02 04:41:34;;;;;;;;;;;21.10;39.30;;;;;;462815;257;2087;-44
2023/01/02 04:43:36;;;;;;;;;;;21.10;39.30;;;;;;462765;257;1741;-43
2023/01/02 04:45:37;;;;;;;;;;;21.10;39.30;;;;;;462701;257;1912;-44
2023/01/02 04:47:38;;;;;;;;;;;21.10;39.30;;;;;;462697;257;2205;-43
2023/01/02 04:49:40;;;;;;;;;;;21.10;39.40;;;;;;462684;257;1885;-44
2023/01/02 04:51:41;;;;;;;;;;;21.00;39.30;;;;;;462600;257;2198;-43
2023/01/02 04:53:42;;;;;;;;;;;21.10;39.40;;;;;;462651;257;1741;-44
2023/01/02 04:55:44;;;;;;;;;;;21.10;39.40;;;;;;462684;257;1952;-43
2023/01/02 04:57:45;;;;;;;;;;;21.00;39.40;;;;;;462658;257;2035;-44
2023/01/02 04:59:46;;;;;;;;;;;21.10;39.40;;;;;;462693;257;1731;-43
2023/01/02 05:01:48;;;;;;;;;;;21.10;39.30;;;;;;462615;257;1980;-43
2023/01/02 05:03:50;;;;;;;;;;;21.00;39.40;;;;;;462654;257;1714;-43
2023/01/02 05:05:50;;;;;;;;;;;21.10;39.40;;;;;;462574;257;2249;-44
2023/01/02 05:07:51;;;;;;;;;;;21.30;39.10;;;;;;462769;257;1668;-44
2023/01/02 05:09:53;;;;;;;;;;;21.50;38.70;;;;;;462770;257;1858;-43
2023/01/02 05:11:54;;;;;;;;;;;21.70;38.30;;;;;;462668;257;2203;-43
2023/01/02 05:13:55;;;;;;;;;;;21.80;37.90;;;;;;462793;257;2425;-43
2023/01/02 05:15:57;;;;;;;;;;;22.00;37.70;;;;;;462652;257;1702;-44
2023/01/02 05:17:58;;;;;;;;;;;22.10;37.50;;;;;;462765;257;1742;-44
2023/01/02 05:19:59;;;;;;;;;;;22.20;37.30;;;;;;462715;257;1706;-44
2023/01/02 05:24:20;;;;;;;;;;;22.30;37.00;;;;;;462831;257;1682;-43
2023/01/02 05:26:21;;;;;;;;;;;22.40;36.90;;;;;;462848;257;2009;-44
2023/01/02 05:28:23;;;;;;;;;;;22.50;36.80;;;;;;462822;257;1750;-43
2023/01/02 05:30:24;;;;;;;;;;;22.50;36.70;;;;;;462933;257;1738;-44
2023/01/02 05:32:25;;;;;;;;;;;22.60;36.60;;;;;;462928;257;2287;-43
2023/01/02 05:34:27;;;;;;;;;;;22.60;36.60;;;;;;462963;257;1976;-43
2023/01/02 05:36:28;;;;;;;;;;;22.70;36.50;;;;;;462946;257;1975;-44
2023/01/02 05:38:29;;;;;;;;;;;22.70;36.40;;;;;;462899;257;1861;-44
2023/01/02 05:40:31;;;;;;;;;;;22.70;36.30;;;;;;462766;257;1851;-44
2023/01/02 05:42:32;;;;;;;;;;;22.80;36.30;;;;;;462765;257;1803;-44
2023/01/02 05:44:34;;;;;;;;;;;22.80;36.20;;;;;;462885;257;1849;-44
2023/01/02 05:46:35;;;;;;;;;;;22.90;36.20;;;;;;462606;257;1698;-44
2023/01/02 05:48:36;;;;;;;;;;;22.90;36.10;;;;;;462571;257;1919;-43
2023/01/02 05:50:38;;;;;;;;;;;22.90;36.00;;;;;;462540;257;2349;-43
2023/01/02 05:52:39;;;;;;;;;;;22.90;36.00;;;;;;462548;257;2120;-43
2023/01/02 05:54:40;;;;;;;;;;;23.00;36.00;;;;;;462575;257;1624;-44
2023/01/02 05:56:42;;;;;;;;;;;23.00;35.90;;;;;;462552;257;1929;-43
2023/01/02 05:58:43;;;;;;;;;;;23.00;35.80;;;;;;462555;257;2037;-44
2023/01/02 06:00:44;;;;;;;;;;;23.10;35.80;;;;;;462651;257;1923;-44
2023/01/02 06:02:46;;;;;;;;;;;23.10;35.80;;;;;;462532;257;1740;-44
2023/01/02 06:04:47;;;;;;;;;;;23.10;35.80;;;;;;462566;257;2919;-44
2023/01/02 06:06:48;;;;;;;;;;;23.10;35.70;;;;;;462585;257;1760;-44
2023/01/02 06:08:50;;;;;;;;;;;23.20;35.70;;;;;;462726;257;1833;-43
2023/01/02 06:10:51;;;;;;;;;;;23.20;35.70;;;;;;462766;257;2230;-44
2023/01/02 06:12:52;;;;;;;;;;;23.20;35.70;;;;;;462742;257;1746;-44
2023/01/02 06:14:54;;;;;;;;;;;23.20;35.60;;;;;;462689;257;2272;-44
2023/01/02 06:16:55;;;;;;;;;;;23.30;35.60;;;;;;462667;257;2099;-44
2023/01/02 06:18:56;;;;;;;;;;;23.30;35.60;;;;;;462622;257;2076;-44
2023/01/02 06:20:58;;;;;;;;;;;23.30;35.60;;;;;;462544;257;1696;-43
2023/01/02 06:22:59;;;;;;;;;;;23.30;35.50;;;;;;462636;257;2055;-44
2023/01/02 06:25:00;;;;;;;;;;;23.30;35.50;;;;;;462706;257;1724;-44
2023/01/02 06:27:02;;;;;;;;;;;23.30;35.50;;;;;;462600;257;2138;-44
2023/01/02 06:29:03;;;;;;;;;;;23.30;35.50;;;;;;462560;257;1343;-44
2023/01/02 06:31:04;;;;;;;;;;;23.30;35.50;;;;;;462678;257;2211;-43
2023/01/02 06:33:06;;;;;;;;;;;23.30;35.40;;;;;;462653;257;2113;-44
2023/01/02 06:35:07;;;;;;;;;;;23.40;35.40;;;;;;462555;257;2719;-44
2023/01/02 06:37:08;;;;;;;;;;;23.40;35.40;;;;;;462502;257;1771;-44
2023/01/02 06:39:10;;;;;;;;;;;23.40;35.40;;;;;;462635;257;2083;-44
2023/01/02 06:41:11;;;;;;;;;;;23.40;35.40;;;;;;462625;257;1905;-43
2023/01/02 06:43:12;;;;;;;;;;;23.40;35.30;;;;;;462792;257;1730;-44
2023/01/02 06:45:14;;;;;;;;;;;23.40;35.30;;;;;;462893;257;1889;-44
2023/01/02 06:47:15;;;;;;;;;;;23.40;35.30;;;;;;462546;257;1746;-44
2023/01/02 06:49:16;;;;;;;;;;;23.40;35.30;;;;;;462725;257;2234;-44
2023/01/02 06:51:18;;;;;;;;;;;23.40;35.30;;;;;;462538;257;2179;-44
2023/01/02 06:53:19;;;;;;;;;;;23.40;35.40;;;;;;462669;257;1674;-43
2023/01/02 06:55:20;;;;;;;;;;;23.30;35.50;;;;;;462797;257;1859;-43
2023/01/02 06:57:22;;;;;;;;;;;23.10;35.80;;;;;;462520;257;1827;-43
2023/01/02 06:59:23;;;;;;;;;;;22.90;36.10;;;;;;462519;257;2232;-43
2023/01/02 07:01:24;;;;;;;;;;;22.60;36.50;;;;;;462640;257;2250;-43
2023/01/02 07:03:26;;;;;;;;;;;22.50;36.90;;;;;;462538;257;1708;-44
2023/01/02 07:05:27;;;;;;;;;;;22.30;37.10;;;;;;462507;257;2199;-43
2023/01/02 07:07:28;;;;;;;;;;;22.20;37.40;;;;;;462567;257;1846;-43
2023/01/02 07:09:30;;;;;;;;;;;22.20;37.50;;;;;;462631;257;1625;-43
2023/01/02 07:11:31;;;;;;;;;;;22.10;37.50;;;;;;462574;257;2199;-43
2023/01/02 07:13:33;;;;;;;;;;;22.00;37.60;;;;;;462526;257;1848;-43
2023/01/02 07:15:35;;;;;;;;;;;22.00;37.70;;;;;;462534;257;2013;-44
2023/01/02 07:17:35;;;;;;;;;;;22.00;37.70;;;;;;462400;257;2121;-44
2023/01/02 07:19:37;;;;;;;;;;;21.90;37.70;;;;;;462553;257;1984;-43
2023/01/02 07:21:38;;;;;;;;;;;21.90;37.80;;;;;;462436;257;2090;-44
2023/01/02 07:23:41;;;;;;;;;;;21.90;37.80;;;;;;462557;257;1713;-43
2023/01/02 07:25:41;;;;;;;;;;;21.80;37.80;;;;;;462540;257;2190;-43
2023/01/02 07:27:43;;;;;;;;;;;21.80;37.90;;;;;;462506;257;2067;-44
2023/01/02 07:29:44;;;;;;;;;;;21.80;38.00;;;;;;462775;257;1930;-44
2023/01/02 07:31:45;;;;;;;;;;;21.70;38.00;;;;;;462610;257;2199;-43
2023/01/02 07:33:47;;;;;;;;;;;21.70;38.00;;;;;;462711;257;1975;-43
2023/01/02 07:35:48;;;;;;;;;;;21.70;38.00;;;;;;462891;257;1750;-43
2023/01/02 07:37:49;;;;;;;;;;;21.70;38.00;;;;;;462832;257;2459;-44
2023/01/02 07:39:51;;;;;;;;;;;21.60;38.00;;;;;;462777;257;1720;-44
2023/01/02 07:41:52;;;;;;;;;;;21.70;38.10;;;;;;462638;257;2078;-43
2023/01/02 07:43:53;;;;;;;;;;;21.60;38.10;;;;;;462768;257;1927;-43
2023/01/02 07:45:55;;;;;;;;;;;21.60;38.10;;;;;;462677;257;1742;-44
2023/01/02 07:47:56;;;;;;;;;;;21.60;38.10;;;;;;462562;257;1711;-43
2023/01/02 07:49:57;;;;;;;;;;;21.60;38.10;;;;;;462628;257;1764;-43
2023/01/02 07:51:58;;;;;;;;;;;21.60;38.10;;;;;;462477;257;2184;-44
2023/01/02 07:54:00;;;;;;;;;;;21.60;38.00;;;;;;462494;257;2203;-43
2023/01/02 07:56:01;;;;;;;;;;;21.60;38.10;;;;;;462408;257;2040;-43
2023/01/02 07:58:02;;;;;;;;;;;21.60;38.00;;;;;;462380;257;1619;-43
2023/01/02 08:00:04;;;;;;;;;;;21.60;38.00;;;;;;462538;257;1906;-43
2023/01/02 08:02:05;;;;;;;;;;;21.60;38.00;;;;;;462402;257;1753;-44
2023/01/02 08:04:06;;;;;;;;;;;21.60;38.00;;;;;;462651;257;1752;-44
2023/01/02 08:06:08;;;;;;;;;;;21.50;38.10;;;;;;462682;257;1784;-43
2023/01/02 08:08:09;;;;;;;;;;;21.50;38.10;;;;;;462601;257;1726;-43
2023/01/02 08:10:11;;;;;;;;;;;21.40;38.30;;;;;;462836;257;1842;-44
2023/01/02 08:12:12;;;;;;;;;;;21.30;38.40;;;;;;462669;257;2406;-44
2023/01/02 08:14:13;;;;;;;;;;;21.30;38.50;;;;;;462828;257;1731;-43
2023/01/02 08:16:14;;;;;;;;;;;21.20;38.50;;;;;;462569;257;2181;-43
2023/01/02 08:18:16;;;;;;;;;;;21.20;38.60;;;;;;462788;257;1666;-43
2023/01/02 08:20:17;;;;;;;;;;;21.00;38.70;;;;;;462779;257;2092;-43
2023/01/02 08:22:18;;;;;;;;;;;21.10;38.80;;;;;;462703;257;1700;-43
2023/01/02 08:24:20;;;;;;;;;;;21.00;38.90;;;;;;462911;257;1711;-43
2023/01/02 08:26:22;;;;;;;;;;;21.00;38.90;;;;;;462826;257;1872;-44
2023/01/02 08:28:22;;;;;;;;;;;21.10;38.70;;;;;;462681;257;2366;-44
2023/01/02 08:30:24;;;;;;;;;;;21.50;38.30;;;;;;462800;257;2048;-44
2023/01/02 08:32:25;;;;;;;;;;;21.70;37.60;;;;;;462576;257;2204;-44
2023/01/02 08:34:26;;;;;;;;;;;22.00;37.30;;;;;;462688;257;1728;-44
2023/01/02 08:36:28;;;;;;;;;;;22.20;36.90;;;;;;462639;257;1682;-44
2023/01/02 08:38:29;;;;;;;;;;;22.30;36.60;;;;;;462629;257;1797;-44
2023/01/02 08:40:30;;;;;;;;;;;22.40;36.40;;;;;;462644;257;1735;-44
2023/01/02 08:42:32;;;;;;;;;;;22.50;36.20;;;;;;462657;257;2022;-43
2023/01/02 08:44:33;;;;;;;;;;;22.60;36.10;;;;;;462628;257;1845;-44
2023/01/02 08:46:34;;;;;;;;;;;22.60;35.90;;;;;;462773;257;1972;-43
2023/01/02 08:48:36;;;;;;;;;;;22.70;35.90;;;;;;462741;257;1728;-43
2023/01/02 08:50:37;;;;;;;;;;;22.70;35.70;;;;;;462865;257;1941;-44
2023/01/02 08:52:38;;;;;;;;;;;22.80;35.70;;;;;;462869;257;2211;-43
2023/01/02 08:54:40;;;;;;;;;;;22.80;35.60;;;;;;462716;257;1654;-43
2023/01/02 08:56:41;;;;;;;;;;;22.90;35.50;;;;;;462780;257;1950;-44
2023/01/02 08:58:42;;;;;;;;;;;22.90;35.40;;;;;;462718;257;1756;-44
2023/01/02 09:00:44;;;;;;;;;;;22.90;35.40;;;;;;462619;257;2254;-44
2023/01/02 09:02:45;;;;;;;;;;;23.00;35.40;;;;;;462400;257;2030;-44
2023/01/02 09:04:46;;;;;;;;;;;23.00;35.30;;;;;;462569;257;2164;-44
2023/01/02 09:06:48;;;;;;;;;;;23.00;35.30;;;;;;462500;257;1734;-44
2023/01/02 09:08:51;;;;;;;;;;;23.10;35.20;;;;;;462705;257;1910;-43
2023/01/02 09:10:50;;;;;;;;;;;23.10;35.20;;;;;;462470;257;2466;-44
2023/01/02 09:12:51;;;;;;;;;;;23.10;35.20;;;;;;462582;257;2187;-44
2023/01/02 09:14:53;;;;;;;;;;;23.10;35.10;;;;;;462575;257;1712;-44
2023/01/02 09:16:56;;;;;;;;;;;23.20;35.10;;;;;;462507;257;1707;-44
2023/01/02 09:18:56;;;;;;;;;;;23.20;35.00;;;;;;462573;257;2141;-44
2023/01/02 09:20:57;;;;;;;;;;;23.20;35.00;;;;;;462720;257;1652;-44
2023/01/02 09:22:58;;;;;;;;;;;23.20;34.90;;;;;;462900;257;1865;-43
2023/01/02 09:25:00;;;;;;;;;;;23.30;34.90;;;;;;462744;257;1733;-43
2023/01/02 09:27:01;;;;;;;;;;;23.30;34.80;;;;;;462692;257;1903;-44
2023/01/02 09:29:02;;;;;;;;;;;23.40;34.90;;;;;;462671;257;2001;-44
2023/01/02 09:31:04;;;;;;;;;;;23.40;34.90;;;;;;462796;257;1980;-43
2023/01/02 09:33:07;;;;;;;;;;;23.40;34.90;;;;;;462604;257;2207;-43
2023/01/02 09:35:06;;;;;;;;;;;23.30;35.00;;;;;;462597;257;1850;-43
2023/01/02 09:37:08;;;;;;;;;;;23.00;35.30;;;;;;462651;257;2094;-43
2023/01/02 09:39:09;;;;;;;;;;;22.70;35.80;;;;;;462927;257;2346;-43
2023/01/02 09:41:10;;;;;;;;;;;22.60;36.20;;;;;;462543;257;1873;-43
2023/01/02 09:43:12;;;;;;;;;;;22.40;36.40;;;;;;462697;257;1939;-44
2023/01/02 09:45:13;;;;;;;;;;;22.30;36.70;;;;;;462758;257;1655;-44
2023/01/02 09:47:14;;;;;;;;;;;22.20;36.90;;;;;;462701;257;1668;-43
2023/01/02 09:49:16;;;;;;;;;;;22.10;37.10;;;;;;462564;257;1991;-43
2023/01/02 09:51:17;;;;;;;;;;;22.00;37.20;;;;;;462671;257;1776;-43
2023/01/02 09:53:18;;;;;;;;;;;21.90;37.30;;;;;;462574;257;2179;-44
2023/01/02 09:55:20;;;;;;;;;;;21.90;37.40;;;;;;462572;257;1753;-43
2023/01/02 09:57:21;;;;;;;;;;;21.80;37.60;;;;;;462713;257;2213;-43
2023/01/02 09:59:22;;;;;;;;;;;21.80;37.70;;;;;;462590;257;1689;-43
2023/01/02 10:01:24;;;;;;;;;;;21.80;37.70;;;;;;462519;257;1763;-43
2023/01/02 10:03:25;;;;;;;;;;;21.80;37.60;;;;;;462727;257;1742;-43
2023/01/02 10:05:26;;;;;;;;;;;21.70;37.60;;;;;;462580;257;1666;-44
2023/01/02 10:07:28;;;;;;;;;;;21.70;37.80;;;;;;462565;257;1834;-44
2023/01/02 10:09:29;;;;;;;;;;;21.60;37.80;;;;;;462758;257;1749;-43
2023/01/02 10:11:30;;;;;;;;;;;21.60;37.80;;;;;;462540;257;1710;-44
2023/01/02 10:13:32;;;;;;;;;;;21.60;37.90;;;;;;462702;257;2198;-44
2023/01/02 10:15:33;;;;;;;;;;;21.60;37.90;;;;;;462679;257;1841;-43
2023/01/02 10:17:34;;;;;;;;;;;21.60;37.90;;;;;;462503;257;1976;-43
2023/01/02 10:19:35;;;;;;;;;;;21.50;37.90;;;;;;462694;257;1939;-43
2023/01/02 10:21:37;;;;;;;;;;;21.60;38.00;;;;;;462761;257;1723;-43
2023/01/02 10:23:38;;;;;;;;;;;21.60;37.90;;;;;;462542;257;1993;-43
2023/01/02 10:25:39;;;;;;;;;;;21.60;37.90;;;;;;462548;257;2003;-44
2023/01/02 10:27:41;;;;;;;;;;;21.60;37.90;;;;;;462562;257;1738;-43
2023/01/02 10:29:42;;;;;;;;;;;21.70;37.90;;;;;;462556;257;1720;-44
2023/01/02 10:31:43;;;;;;;;;;;21.70;37.80;;;;;;462478;257;1752;-43
2023/01/02 10:33:45;;;;;;;;;;;21.60;37.70;;;;;;462570;257;2211;-44
2023/01/02 10:35:46;;;;;;;;;;;21.70;37.80;;;;;;462599;257;2320;-44
2023/01/02 10:37:47;;;;;;;;;;;21.70;37.80;;;;;;462605;257;1960;-44
2023/01/02 10:39:49;;;;;;;;;;;21.70;37.70;;;;;;462720;257;2126;-44
2023/01/02 10:41:50;;;;;;;;;;;21.70;37.70;;;;;;462777;257;1883;-43
2023/01/02 10:43:51;;;;;;;;;;;21.70;37.70;;;;;;462775;257;1616;-44
2023/01/02 10:45:53;;;;;;;;;;;21.80;37.70;;;;;;462916;257;1686;-43
2023/01/02 10:47:54;;;;;;;;;;;21.80;37.60;;;;;;462704;257;1698;-43
2023/01/02 10:49:55;;;;;;;;;;;21.80;37.50;;;;;;462830;257;1691;-43
2023/01/02 10:51:57;;;;;;;;;;;21.80;37.60;;;;;;462670;257;1866;-44
2023/01/02 10:53:58;;;;;;;;;;;21.80;37.50;;;;;;462690;257;2206;-43
2023/01/02 10:55:59;;;;;;;;;;;21.80;37.60;;;;;;462774;257;1976;-43
2023/01/02 10:58:01;;;;;;;;;;;21.90;37.50;;;;;;462810;257;2194;-43
2023/01/02 11:00:03;;;;;;;;;;;21.80;37.50;;;;;;462798;257;2119;-43
2023/01/02 11:02:04;;;;;;;;;;;21.80;37.50;;;;;;462725;257;1748;-43
2023/01/02 11:04:08;;;;;;;;;;;21.80;37.50;;;;;;462691;257;1905;-43
2023/01/02 11:06:06;;;;;;;;;;;21.80;37.50;;;;;;462576;257;1960;-43
2023/01/02 11:08:08;;;;;;;;;;;21.80;37.50;;;;;;462635;257;1723;-44
2023/01/02 11:10:10;;;;;;;;;;;21.80;37.50;;;;;;462739;257;1915;-44
2023/01/02 11:12:11;;;;;;;;;;;21.90;37.60;;;;;;462661;257;2423;-44
2023/01/02 11:14:12;;;;;;;;;;;21.90;37.50;;;;;;462583;257;2207;-44
2023/01/02 11:16:14;;;;;;;;;;;21.80;37.50;;;;;;462632;257;1719;-44
2023/01/02 11:18:15;;;;;;;;;;;21.80;37.60;;;;;;462553;257;1704;-43
2023/01/02 11:20:16;;;;;;;;;;;21.80;37.60;;;;;;462654;257;1805;-44
2023/01/02 11:22:17;;;;;;;;;;;21.80;37.60;;;;;;462687;257;1855;-44
2023/01/02 11:24:21;;;;;;;;;;;21.80;37.60;;;;;;462636;257;1874;-44
2023/01/02 11:26:20;;;;;;;;;;;21.80;37.60;;;;;;462549;257;2002;-43
2023/01/02 11:28:22;;;;;;;;;;;21.90;37.60;;;;;;462550;257;2239;-44
2023/01/02 11:30:23;;;;;;;;;;;21.80;37.50;;;;;;462516;257;1707;-43
2023/01/02 11:32:24;;;;;;;;;;;21.80;37.50;;;;;;462566;257;2662;-44
2023/01/02 11:34:25;;;;;;;;;;;21.80;37.60;;;;;;462496;257;2187;-43
2023/01/02 11:36:27;;;;;;;;;;;21.80;37.60;;;;;;462595;257;1873;-44
2023/01/02 11:38:28;;;;;;;;;;;21.80;37.60;;;;;;462510;257;2090;-44
2023/01/02 11:40:29;;;;;;;;;;;21.80;37.60;;;;;;462479;257;1926;-43
2023/01/02 11:44:50;;;;;;;;;;;21.80;37.60;;;;;;462440;257;1762;-43
2023/01/02 11:46:51;;;;;;;;;;;21.90;37.60;;;;;;462628;257;2189;-43
2023/01/02 11:48:53;;;;;;;;;;;21.80;37.60;;;;;;462492;257;1877;-43
2023/01/02 11:50:54;;;;;;;;;;;21.90;37.60;;;;;;462679;257;1954;-43
2023/01/02 11:52:55;;;;;;;;;;;21.80;37.60;;;;;;462502;257;2196;-43
2023/01/02 11:54:57;;;;;;;;;;;21.90;37.60;;;;;;462550;257;1726;-44
2023/01/02 11:56:58;;;;;;;;;;;21.90;37.60;;;;;;462537;257;1766;-43
2023/01/02 11:58:59;;;;;;;;;;;21.90;37.60;;;;;;462555;257;1719;-44
2023/01/02 12:01:01;;;;;;;;;;;21.80;37.60;;;;;;462546;257;1774;-43